createdAt,value
2022-10-20T00:00:09.721Z,8.56
2022-10-20T00:01:09.709Z,8.56
2022-10-20T00:02:09.739Z,8.55
2022-10-20T00:03:09.700Z,8.55
2022-10-20T00:04:09.670Z,8.53
2022-10-20T00:05:09.661Z,8.53
2022-10-20T00:06:09.650Z,8.53
2022-10-20T00:07:09.649Z,8.53
2022-10-20T00:08:09.660Z,8.53
2022-10-20T00:09:09.672Z,8.52
2022-10-20T00:10:09.611Z,8.49
2022-10-20T00:11:09.605Z,8.52
2022-10-20T00:12:09.592Z,8.49
2022-10-20T00:13:09.614Z,8.47
2022-10-20T00:14:09.562Z,8.47
2022-10-20T00:15:09.563Z,8.47
2022-10-20T00:16:09.543Z,8.47
2022-10-20T00:17:09.552Z,8.47
2022-10-20T00:18:09.524Z,8.46
2022-10-20T00:19:09.543Z,8.46
2022-10-20T00:20:09.562Z,8.47
2022-10-20T00:21:09.515Z,8.47
2022-10-20T00:22:09.484Z,8.49
2022-10-20T00:23:09.486Z,8.50
2022-10-20T00:24:09.485Z,8.50
2022-10-20T00:25:09.456Z,8.50
2022-10-20T00:26:09.446Z,8.52
2022-10-20T00:27:09.445Z,8.50
2022-10-20T00:28:09.419Z,8.53
2022-10-20T00:29:09.501Z,8.53
2022-10-20T00:30:09.401Z,8.55
2022-10-20T00:31:09.395Z,8.53
2022-10-20T00:32:09.386Z,8.53
2022-10-20T00:33:09.370Z,8.52
2022-10-20T00:34:09.369Z,8.50
2022-10-20T00:35:09.358Z,8.50
2022-10-20T00:36:09.339Z,8.49
2022-10-20T00:37:09.335Z,8.50
2022-10-20T00:38:09.383Z,8.52
2022-10-20T00:39:09.330Z,8.52
2022-10-20T00:40:09.289Z,8.52
2022-10-20T00:41:09.289Z,8.53
2022-10-20T00:42:09.270Z,8.52
2022-10-20T00:43:09.271Z,8.55
2022-10-20T00:44:09.385Z,8.52
2022-10-20T00:45:09.249Z,8.50
2022-10-20T00:46:09.236Z,8.50
2022-10-20T00:47:09.228Z,8.47
2022-10-20T00:48:09.212Z,8.46
2022-10-20T00:49:09.223Z,8.42
2022-10-20T00:50:09.191Z,8.39
2022-10-20T00:51:09.182Z,8.37
2022-10-20T00:52:09.176Z,8.35
2022-10-20T00:53:09.163Z,8.35
2022-10-20T00:54:09.164Z,8.35
2022-10-20T00:55:09.145Z,8.32
2022-10-20T00:56:09.124Z,8.31
2022-10-20T00:57:09.126Z,8.29
2022-10-20T00:58:09.104Z,8.28
2022-10-20T00:59:09.125Z,8.29
2022-10-20T01:00:09.096Z,8.28
2022-10-20T01:01:09.085Z,8.26
2022-10-20T01:02:09.137Z,8.24
2022-10-20T01:03:09.095Z,8.23
2022-10-20T01:04:09.065Z,8.21
2022-10-20T01:05:09.038Z,8.20
2022-10-20T01:06:09.041Z,8.19
2022-10-20T01:07:09.016Z,8.16
2022-10-20T01:08:08.998Z,8.14
2022-10-20T01:09:09.040Z,8.14
2022-10-20T01:10:08.986Z,8.13
2022-10-20T01:11:08.977Z,8.09
2022-10-20T01:12:08.967Z,8.09
2022-10-20T01:13:08.958Z,8.06
2022-10-20T01:14:08.959Z,8.05
2022-10-20T01:15:08.936Z,8.02
2022-10-20T01:16:08.918Z,8.02
2022-10-20T01:17:08.919Z,8.01
2022-10-20T01:18:08.978Z,8.01
2022-10-20T01:19:08.909Z,7.99
2022-10-20T01:20:08.880Z,7.99
2022-10-20T01:21:08.879Z,7.99
2022-10-20T01:22:08.861Z,7.98
2022-10-20T01:23:08.850Z,7.98
2022-10-20T01:24:08.860Z,7.98
2022-10-20T01:25:08.832Z,7.95
2022-10-20T01:26:08.813Z,7.95
2022-10-20T01:27:08.811Z,7.94
2022-10-20T01:28:08.799Z,7.92
2022-10-20T01:29:08.811Z,7.88
2022-10-20T01:30:08.780Z,7.87
2022-10-20T01:31:08.771Z,7.87
2022-10-20T01:32:08.752Z,7.83
2022-10-20T01:33:08.752Z,7.84
2022-10-20T01:34:08.754Z,7.83
2022-10-20T01:35:08.725Z,7.83
2022-10-20T01:36:08.712Z,7.80
2022-10-20T01:37:08.705Z,7.78
2022-10-20T01:38:08.685Z,7.76
2022-10-20T01:39:08.714Z,7.73
2022-10-20T01:40:08.666Z,7.69
2022-10-20T01:41:08.666Z,7.68
2022-10-20T01:42:08.655Z,7.66
2022-10-20T01:43:08.665Z,7.64
2022-10-20T01:44:08.649Z,7.60
2022-10-20T01:45:08.626Z,7.61
2022-10-20T01:46:08.607Z,7.58
2022-10-20T01:47:08.598Z,7.58
2022-10-20T01:48:08.598Z,7.57
2022-10-20T01:49:08.599Z,7.55
2022-10-20T01:50:08.568Z,7.55
2022-10-20T01:51:08.560Z,7.57
2022-10-20T01:52:08.547Z,7.55
2022-10-20T01:53:08.540Z,7.52
2022-10-20T01:54:08.546Z,7.49
2022-10-20T01:55:08.518Z,7.50
2022-10-20T01:56:08.500Z,7.50
2022-10-20T01:57:08.501Z,7.49
2022-10-20T01:58:08.480Z,7.50
2022-10-20T01:59:08.490Z,7.50
2022-10-20T02:00:08.465Z,7.49
2022-10-20T02:01:08.459Z,7.49
2022-10-20T02:02:08.444Z,7.49
2022-10-20T02:03:08.441Z,7.50
2022-10-20T02:04:08.442Z,7.50
2022-10-20T02:05:08.412Z,7.49
2022-10-20T02:06:08.402Z,7.49
2022-10-20T02:07:08.401Z,7.44
2022-10-20T02:08:08.384Z,7.44
2022-10-20T02:09:08.396Z,7.44
2022-10-20T02:10:08.362Z,7.43
2022-10-20T02:11:08.354Z,7.43
2022-10-20T02:12:08.342Z,7.42
2022-10-20T02:13:08.335Z,7.40
2022-10-20T02:14:08.346Z,7.39
2022-10-20T02:15:08.306Z,7.40
2022-10-20T02:16:08.306Z,7.37
2022-10-20T02:17:08.292Z,7.36
2022-10-20T02:18:08.285Z,7.36
2022-10-20T02:19:08.287Z,7.37
2022-10-20T02:20:08.259Z,7.39
2022-10-20T02:21:08.247Z,7.39
2022-10-20T02:22:08.240Z,7.39
2022-10-20T02:23:08.235Z,7.39
2022-10-20T02:24:08.238Z,7.39
2022-10-20T02:25:08.215Z,7.40
2022-10-20T02:26:08.189Z,7.40
2022-10-20T02:27:08.191Z,7.37
2022-10-20T02:28:08.175Z,7.36
2022-10-20T02:29:08.186Z,7.33
2022-10-20T02:30:08.153Z,7.31
2022-10-20T02:31:08.152Z,7.31
2022-10-20T02:32:08.129Z,7.29
2022-10-20T02:33:08.120Z,7.33
2022-10-20T02:34:08.129Z,7.31
2022-10-20T02:35:08.103Z,7.31
2022-10-20T02:36:08.090Z,7.33
2022-10-20T02:37:08.126Z,7.31
2022-10-20T02:38:08.062Z,7.31
2022-10-20T02:39:08.081Z,7.31
2022-10-20T02:40:08.053Z,7.28
2022-10-20T02:41:08.042Z,7.28
2022-10-20T02:42:08.033Z,7.28
2022-10-20T02:43:08.014Z,7.26
2022-10-20T02:44:08.029Z,7.28
2022-10-20T02:45:08.002Z,7.26
2022-10-20T02:46:08.074Z,7.28
2022-10-20T02:47:07.985Z,7.26
2022-10-20T02:48:08.034Z,7.25
2022-10-20T02:49:07.978Z,7.25
2022-10-20T02:50:07.952Z,7.22
2022-10-20T02:51:07.933Z,7.22
2022-10-20T02:52:07.932Z,7.21
2022-10-20T02:53:07.915Z,7.22
2022-10-20T02:54:07.924Z,7.22
2022-10-20T02:55:07.946Z,7.21
2022-10-20T02:56:07.885Z,7.21
2022-10-20T02:57:07.866Z,7.21
2022-10-20T02:58:07.866Z,7.18
2022-10-20T02:59:07.877Z,7.16
2022-10-20T03:00:07.848Z,7.13
2022-10-20T03:01:07.834Z,7.11
2022-10-20T03:02:07.931Z,7.13
2022-10-20T03:03:07.808Z,7.15
2022-10-20T03:04:07.819Z,7.11
2022-10-20T03:05:07.791Z,7.10
2022-10-20T03:06:07.787Z,7.11
2022-10-20T03:07:07.768Z,7.10
2022-10-20T03:08:07.759Z,7.10
2022-10-20T03:09:07.758Z,7.08
2022-10-20T03:10:07.748Z,7.08
2022-10-20T03:11:07.732Z,7.10
2022-10-20T03:12:07.719Z,7.11
2022-10-20T03:13:07.720Z,7.11
2022-10-20T03:14:07.709Z,7.11
2022-10-20T03:15:07.681Z,7.11
2022-10-20T03:16:07.680Z,7.10
2022-10-20T03:17:07.680Z,7.11
2022-10-20T03:18:07.660Z,7.08
2022-10-20T03:19:11.387Z,7.08
2022-10-20T03:20:07.642Z,7.04
2022-10-20T03:21:07.622Z,7.03
2022-10-20T03:22:07.619Z,7.00
2022-10-20T03:23:07.613Z,6.99
2022-10-20T03:24:07.613Z,6.93
2022-10-20T03:25:07.584Z,6.93
2022-10-20T03:26:07.574Z,6.92
2022-10-20T03:27:07.571Z,6.91
2022-10-20T03:28:07.554Z,6.91
2022-10-20T03:29:07.555Z,6.91
2022-10-20T03:30:07.533Z,6.91
2022-10-20T03:31:07.515Z,6.93
2022-10-20T03:32:07.520Z,6.92
2022-10-20T03:33:07.495Z,6.89
2022-10-20T03:34:07.515Z,6.86
2022-10-20T03:35:07.484Z,6.83
2022-10-20T03:36:07.472Z,6.82
2022-10-20T03:37:07.456Z,6.81
2022-10-20T03:38:07.455Z,6.78
2022-10-20T03:39:07.455Z,6.79
2022-10-20T03:40:07.435Z,6.78
2022-10-20T03:41:07.435Z,6.78
2022-10-20T03:42:07.409Z,6.75
2022-10-20T03:43:07.398Z,6.75
2022-10-20T03:44:07.408Z,6.73
2022-10-20T03:45:07.368Z,6.73
2022-10-20T03:46:07.368Z,6.73
2022-10-20T03:47:07.358Z,6.74
2022-10-20T03:48:07.350Z,6.73
2022-10-20T03:49:07.350Z,6.71
2022-10-20T03:50:07.341Z,6.68
2022-10-20T03:51:07.310Z,6.67
2022-10-20T03:52:07.299Z,6.64
2022-10-20T03:53:07.292Z,6.63
2022-10-20T03:54:07.299Z,6.61
2022-10-20T03:55:07.270Z,6.60
2022-10-20T03:56:07.268Z,6.56
2022-10-20T03:57:07.968Z,6.57
2022-10-20T03:58:07.242Z,6.60
2022-10-20T03:59:07.245Z,6.56
2022-10-20T04:00:07.223Z,6.57
2022-10-20T04:01:07.209Z,6.57
2022-10-20T04:02:07.339Z,6.61
2022-10-20T04:03:07.183Z,6.60
2022-10-20T04:04:07.201Z,6.61
2022-10-20T04:05:07.173Z,6.61
2022-10-20T04:06:07.183Z,6.61
2022-10-20T04:07:07.151Z,6.64
2022-10-20T04:08:07.189Z,6.65
2022-10-20T04:09:07.177Z,6.64
2022-10-20T04:10:07.124Z,6.60
2022-10-20T04:11:07.105Z,6.60
2022-10-20T04:12:07.104Z,6.60
2022-10-20T04:13:09.202Z,6.60
2022-10-20T04:14:07.095Z,6.60
2022-10-20T04:15:07.066Z,6.60
2022-10-20T04:16:07.076Z,6.63
2022-10-20T04:17:07.036Z,6.63
2022-10-20T04:18:07.094Z,6.63
2022-10-20T04:19:07.036Z,6.61
2022-10-20T04:20:07.017Z,6.63
2022-10-20T04:21:07.007Z,6.64
2022-10-20T04:22:07.011Z,6.64
2022-10-20T04:23:06.978Z,6.63
2022-10-20T04:24:06.997Z,6.61
2022-10-20T04:25:06.965Z,6.61
2022-10-20T04:26:06.958Z,6.60
2022-10-20T04:27:06.939Z,6.56
2022-10-20T04:28:06.939Z,6.56
2022-10-20T04:29:06.939Z,6.56
2022-10-20T04:30:06.917Z,6.55
2022-10-20T04:31:06.909Z,6.55
2022-10-20T04:32:06.889Z,6.55
2022-10-20T04:33:06.882Z,6.53
2022-10-20T04:34:06.880Z,6.47
2022-10-20T04:35:06.851Z,6.45
2022-10-20T04:36:06.852Z,6.46
2022-10-20T04:37:06.851Z,6.43
2022-10-20T04:38:06.830Z,6.46
2022-10-20T04:39:06.831Z,6.43
2022-10-20T04:40:06.809Z,6.42
2022-10-20T04:41:06.792Z,6.37
2022-10-20T04:42:06.783Z,6.34
2022-10-20T04:43:06.781Z,6.37
2022-10-20T04:44:06.792Z,6.38
2022-10-20T04:45:06.761Z,6.40
2022-10-20T04:46:08.472Z,6.42
2022-10-20T04:47:06.733Z,6.42
2022-10-20T04:48:06.724Z,6.42
2022-10-20T04:49:06.733Z,6.40
2022-10-20T04:50:06.705Z,6.40
2022-10-20T04:51:06.698Z,6.37
2022-10-20T04:52:06.697Z,6.37
2022-10-20T04:53:06.669Z,6.34
2022-10-20T04:54:06.691Z,6.32
2022-10-20T04:55:06.647Z,6.32
2022-10-20T04:56:06.646Z,6.32
2022-10-20T04:57:06.629Z,6.32
2022-10-20T04:58:06.625Z,6.31
2022-10-20T04:59:09.636Z,6.31
2022-10-20T05:00:07.606Z,6.30
2022-10-20T05:01:06.600Z,6.31
2022-10-20T05:02:06.656Z,6.30
2022-10-20T05:03:06.619Z,6.28
2022-10-20T05:04:06.590Z,6.30
2022-10-20T05:05:06.551Z,6.27
2022-10-20T05:06:06.549Z,6.27
2022-10-20T05:07:06.529Z,6.25
2022-10-20T05:08:06.518Z,6.25
2022-10-20T05:09:06.568Z,6.27
2022-10-20T05:10:06.524Z,6.27
2022-10-20T05:11:06.481Z,6.27
2022-10-20T05:12:06.545Z,6.28
2022-10-20T05:13:06.469Z,6.28
2022-10-20T05:14:06.471Z,6.27
2022-10-20T05:15:06.442Z,6.25
2022-10-20T05:16:06.431Z,6.25
2022-10-20T05:17:09.220Z,6.24
2022-10-20T05:18:06.414Z,6.21
2022-10-20T05:19:06.421Z,6.21
2022-10-20T05:20:06.391Z,6.19
2022-10-20T05:21:08.825Z,6.21
2022-10-20T05:22:06.374Z,6.16
2022-10-20T05:23:06.353Z,6.12
2022-10-20T05:24:06.384Z,6.15
2022-10-20T05:25:31.438Z,6.13
2022-10-20T05:26:07.333Z,6.12
2022-10-20T05:27:06.313Z,6.13
2022-10-20T05:28:06.314Z,6.12
2022-10-20T05:29:06.315Z,6.13
2022-10-20T05:30:06.254Z,6.15
2022-10-20T05:31:06.288Z,6.12
2022-10-20T05:32:06.274Z,6.13
2022-10-20T05:33:06.256Z,6.13
2022-10-20T05:34:06.226Z,6.12
2022-10-20T05:35:06.183Z,6.11
2022-10-20T05:36:06.175Z,6.09
2022-10-20T05:37:06.156Z,6.11
2022-10-20T05:38:06.158Z,6.08
2022-10-20T05:39:06.158Z,6.06
2022-10-20T05:40:06.135Z,6.06
2022-10-20T05:41:06.118Z,6.05
2022-10-20T05:42:06.116Z,6.08
2022-10-20T05:43:06.119Z,6.08
2022-10-20T05:44:06.108Z,6.06
2022-10-20T05:45:06.079Z,6.06
2022-10-20T05:46:06.069Z,6.05
2022-10-20T05:47:06.058Z,6.03
2022-10-20T05:48:06.049Z,6.05
2022-10-20T05:49:06.059Z,6.02
2022-10-20T05:50:06.047Z,6.03
2022-10-20T05:51:07.481Z,6.02
2022-10-20T05:52:06.011Z,6.05
2022-10-20T05:53:05.991Z,6.06
2022-10-20T05:54:06.007Z,6.06
2022-10-20T05:55:05.972Z,6.06
2022-10-20T05:56:05.982Z,6.08
2022-10-20T05:57:05.952Z,6.06
2022-10-20T05:58:05.949Z,6.08
2022-10-20T05:59:05.959Z,6.06
2022-10-20T06:00:05.930Z,6.08
2022-10-20T06:01:05.911Z,6.05
2022-10-20T06:02:05.914Z,6.06
2022-10-20T06:03:05.891Z,6.08
2022-10-20T06:04:05.903Z,6.08
2022-10-20T06:05:05.880Z,6.06
2022-10-20T06:06:05.863Z,6.03
2022-10-20T06:07:05.851Z,6.02
2022-10-20T06:08:05.845Z,6.02
2022-10-20T06:09:05.908Z,5.98
2022-10-20T06:10:05.825Z,5.98
2022-10-20T06:11:05.814Z,5.98
2022-10-20T06:12:05.875Z,5.97
2022-10-20T06:13:05.794Z,5.97
2022-10-20T06:14:05.816Z,5.98
2022-10-20T06:15:05.766Z,6.00
2022-10-20T06:16:05.765Z,6.03
2022-10-20T06:17:05.747Z,6.03
2022-10-20T06:18:05.754Z,6.02
2022-10-20T06:19:05.748Z,6.03
2022-10-20T06:20:05.718Z,6.03
2022-10-20T06:21:05.707Z,6.06
2022-10-20T06:22:06.744Z,6.08
2022-10-20T06:23:05.700Z,6.09
2022-10-20T06:24:05.698Z,6.08
2022-10-20T06:25:05.678Z,6.05
2022-10-20T06:26:05.658Z,6.06
2022-10-20T06:27:05.653Z,6.06
2022-10-20T06:28:05.637Z,6.05
2022-10-20T06:29:05.655Z,6.06
2022-10-20T06:30:05.621Z,6.09
2022-10-20T06:31:05.610Z,6.11
2022-10-20T06:32:05.636Z,6.15
2022-10-20T06:33:05.580Z,6.15
2022-10-20T06:34:05.600Z,6.15
2022-10-20T06:35:05.561Z,6.15
2022-10-20T06:36:05.560Z,6.15
2022-10-20T06:37:05.541Z,6.15
2022-10-20T06:38:05.531Z,6.16
2022-10-20T06:39:05.533Z,6.19
2022-10-20T06:40:05.511Z,6.21
2022-10-20T06:41:05.496Z,6.24
2022-10-20T06:42:09.506Z,6.27
2022-10-20T06:43:06.473Z,6.27
2022-10-20T06:44:05.484Z,6.31
2022-10-20T06:45:05.453Z,6.31
2022-10-20T06:46:05.452Z,6.34
2022-10-20T06:47:05.433Z,6.34
2022-10-20T06:48:05.435Z,6.37
2022-10-20T06:49:05.445Z,6.37
2022-10-20T06:50:05.404Z,6.38
2022-10-20T06:51:05.395Z,6.42
2022-10-20T06:52:05.464Z,6.42
2022-10-20T06:53:05.374Z,6.43
2022-10-20T06:54:05.385Z,6.45
2022-10-20T06:55:05.346Z,6.49
2022-10-20T06:56:05.346Z,6.52
2022-10-20T06:57:05.336Z,6.52
2022-10-20T06:58:05.327Z,6.53
2022-10-20T06:59:05.335Z,6.55
2022-10-20T07:00:05.577Z,6.53
2022-10-20T07:01:08.303Z,6.53
2022-10-20T07:02:06.337Z,6.56
2022-10-20T07:03:05.268Z,6.60
2022-10-20T07:04:05.302Z,6.61
2022-10-20T07:05:05.257Z,6.60
2022-10-20T07:06:05.238Z,6.63
2022-10-20T07:07:05.235Z,6.65
2022-10-20T07:08:05.220Z,6.68
2022-10-20T07:09:05.280Z,6.71
2022-10-20T07:10:05.199Z,6.73
2022-10-20T07:11:05.190Z,6.75
2022-10-20T07:12:05.176Z,6.78
2022-10-20T07:13:05.169Z,6.81
2022-10-20T07:14:05.171Z,6.82
2022-10-20T07:15:05.154Z,6.86
2022-10-20T07:16:05.138Z,6.89
2022-10-20T07:17:05.141Z,6.91
2022-10-20T07:18:05.112Z,6.97
2022-10-20T07:19:05.124Z,7.00
2022-10-20T07:20:05.093Z,7.03
2022-10-20T07:21:05.082Z,7.06
2022-10-20T07:22:05.072Z,7.06
2022-10-20T07:23:05.072Z,7.08
2022-10-20T07:24:05.083Z,7.11
2022-10-20T07:25:05.044Z,7.13
2022-10-20T07:26:05.034Z,7.15
2022-10-20T07:27:05.023Z,7.18
2022-10-20T07:28:05.012Z,7.19
2022-10-20T07:29:05.034Z,7.25
2022-10-20T07:30:04.994Z,7.24
2022-10-20T07:31:04.984Z,7.26
2022-10-20T07:32:04.973Z,7.28
2022-10-20T07:33:04.964Z,7.29
2022-10-20T07:34:23.727Z,7.33
2022-10-20T07:35:05.950Z,7.34
2022-10-20T07:36:04.926Z,7.37
2022-10-20T07:37:04.925Z,7.40
2022-10-20T07:38:04.914Z,7.43
2022-10-20T07:39:04.918Z,7.46
2022-10-20T07:40:04.887Z,7.47
2022-10-20T07:41:04.881Z,7.52
2022-10-20T07:42:04.896Z,7.55
2022-10-20T07:43:04.864Z,7.57
2022-10-20T07:44:04.867Z,7.58
2022-10-20T07:45:04.838Z,7.61
2022-10-20T07:46:04.830Z,7.62
2022-10-20T07:47:04.820Z,7.66
2022-10-20T07:48:04.799Z,7.68
2022-10-20T07:49:42.338Z,7.71
2022-10-20T07:50:05.780Z,7.71
2022-10-20T07:51:04.824Z,7.74
2022-10-20T07:52:04.760Z,7.77
2022-10-20T07:53:04.758Z,7.80
2022-10-20T07:54:04.762Z,7.84
2022-10-20T07:55:23.858Z,7.87
2022-10-20T07:56:05.719Z,7.91
2022-10-20T07:57:04.719Z,7.95
2022-10-20T07:58:04.703Z,7.98
2022-10-20T07:59:04.712Z,8.02
2022-10-20T08:00:04.686Z,8.04
2022-10-20T08:01:04.673Z,8.06
2022-10-20T08:02:04.868Z,8.09
2022-10-20T08:03:04.654Z,8.14
2022-10-20T08:04:04.664Z,8.16
2022-10-20T08:05:04.635Z,8.20
2022-10-20T08:06:04.614Z,8.24
2022-10-20T08:07:04.615Z,8.28
2022-10-20T08:08:04.597Z,8.31
2022-10-20T08:09:04.671Z,8.34
2022-10-20T08:10:04.576Z,8.37
2022-10-20T08:11:04.566Z,8.41
2022-10-20T08:12:04.555Z,8.44
2022-10-20T08:13:04.557Z,8.46
2022-10-20T08:14:04.545Z,8.50
2022-10-20T08:15:04.540Z,8.55
2022-10-20T08:16:07.614Z,8.56
2022-10-20T08:17:05.039Z,8.59
2022-10-20T08:18:05.837Z,8.65
2022-10-20T08:19:07.059Z,8.70
2022-10-20T08:20:07.262Z,8.72
2022-10-20T08:21:05.459Z,8.74
2022-10-20T08:22:04.459Z,8.75
2022-10-20T08:23:04.450Z,8.80
2022-10-20T08:24:04.428Z,8.83
2022-10-20T08:25:04.447Z,8.86
2022-10-20T08:26:06.802Z,8.90
2022-10-20T08:27:05.402Z,8.95
2022-10-20T08:28:04.381Z,8.99
2022-10-20T08:29:04.378Z,9.04
2022-10-20T08:30:22.891Z,9.08
2022-10-20T08:31:05.363Z,9.12
2022-10-20T08:32:04.361Z,9.14
2022-10-20T08:33:04.332Z,9.18
2022-10-20T08:34:04.321Z,9.23
2022-10-20T08:35:04.344Z,9.26
2022-10-20T08:36:04.303Z,9.30
2022-10-20T08:37:04.294Z,9.34
2022-10-20T08:38:04.275Z,9.36
2022-10-20T08:39:06.159Z,9.40
2022-10-20T08:40:04.275Z,9.42
2022-10-20T08:41:04.263Z,9.47
2022-10-20T08:42:08.614Z,9.51
2022-10-20T08:43:05.237Z,9.54
2022-10-20T08:44:04.217Z,9.55
2022-10-20T08:45:04.225Z,9.57
2022-10-20T08:46:04.196Z,9.62
2022-10-20T08:47:04.187Z,9.63
2022-10-20T08:48:04.175Z,9.66
2022-10-20T08:49:04.168Z,9.69
2022-10-20T08:50:04.176Z,9.72
2022-10-20T08:51:04.149Z,9.75
2022-10-20T08:52:04.128Z,9.78
2022-10-20T08:53:04.126Z,9.81
2022-10-20T08:54:04.138Z,9.83
2022-10-20T08:55:04.128Z,9.88
2022-10-20T08:56:04.093Z,9.90
2022-10-20T08:57:04.086Z,9.93
2022-10-20T08:58:04.081Z,9.96
2022-10-20T08:59:04.069Z,9.98
2022-10-20T09:00:08.723Z,10.01
2022-10-20T09:01:05.041Z,10.02
2022-10-20T09:02:04.082Z,10.06
2022-10-20T09:03:04.020Z,10.09
2022-10-20T09:04:04.001Z,10.10
2022-10-20T09:05:04.020Z,10.16
2022-10-20T09:06:03.983Z,10.21
2022-10-20T09:07:03.982Z,10.23
2022-10-20T09:08:03.972Z,10.26
2022-10-20T09:09:04.067Z,10.28
2022-10-20T09:10:03.960Z,10.31
2022-10-20T09:11:03.934Z,10.34
2022-10-20T09:12:03.919Z,10.36
2022-10-20T09:13:04.036Z,10.38
2022-10-20T09:14:03.997Z,10.42
2022-10-20T09:15:03.911Z,10.41
2022-10-20T09:16:03.884Z,10.45
2022-10-20T09:17:06.023Z,10.46
2022-10-20T09:18:03.873Z,10.46
2022-10-20T09:19:03.861Z,10.49
2022-10-20T09:20:03.860Z,10.49
2022-10-20T09:21:03.833Z,10.52
2022-10-20T09:22:03.816Z,10.54
2022-10-20T09:23:07.781Z,10.57
2022-10-20T09:24:04.797Z,10.58
2022-10-20T09:25:03.808Z,10.60
2022-10-20T09:26:03.812Z,10.62
2022-10-20T09:27:03.767Z,10.64
2022-10-20T09:28:03.755Z,10.70
2022-10-20T09:29:12.978Z,10.72
2022-10-20T09:30:04.746Z,10.78
2022-10-20T09:31:03.720Z,10.80
2022-10-20T09:32:34.020Z,10.85
2022-10-20T09:33:04.701Z,10.90
2022-10-20T09:34:03.690Z,10.94
2022-10-20T09:35:03.716Z,11.00
2022-10-20T09:36:03.671Z,11.04
2022-10-20T09:37:03.661Z,11.09
2022-10-20T09:38:03.648Z,11.12
2022-10-20T09:39:03.646Z,11.16
2022-10-20T09:40:03.642Z,11.20
2022-10-20T09:41:03.622Z,11.23
2022-10-20T09:43:03.601Z,11.30
2022-10-20T09:44:03.583Z,11.33
2022-10-20T09:45:03.601Z,11.37
2022-10-20T09:46:03.564Z,11.41
2022-10-20T09:47:03.568Z,11.43
2022-10-20T09:48:03.544Z,11.46
2022-10-20T09:49:03.545Z,11.49
2022-10-20T09:50:03.555Z,11.55
2022-10-20T09:51:03.573Z,11.58
2022-10-20T09:52:03.497Z,11.62
2022-10-20T09:53:03.498Z,11.67
2022-10-20T09:54:03.483Z,11.70
2022-10-20T09:55:03.488Z,11.77
2022-10-20T09:56:03.459Z,11.82
2022-10-20T09:57:03.447Z,11.88
2022-10-20T09:58:03.473Z,11.93
2022-10-20T09:59:03.437Z,11.96
2022-10-20T10:00:13.526Z,11.99
2022-10-20T10:01:04.486Z,12.00
2022-10-20T10:02:03.391Z,12.00
2022-10-20T10:03:03.456Z,12.04
2022-10-20T10:04:06.780Z,12.05
2022-10-20T10:05:04.388Z,12.08
2022-10-20T10:06:03.351Z,12.10
2022-10-20T10:07:03.341Z,12.11
2022-10-20T10:08:03.331Z,12.11
2022-10-20T10:09:03.377Z,12.14
2022-10-20T10:10:05.707Z,12.15
2022-10-20T10:11:04.296Z,12.17
2022-10-20T10:12:03.285Z,12.17
2022-10-20T10:13:03.316Z,12.18
2022-10-20T10:14:03.266Z,12.21
2022-10-20T10:15:03.276Z,12.23
2022-10-20T10:16:03.244Z,12.23
2022-10-20T10:17:03.234Z,12.26
2022-10-20T10:18:03.216Z,12.29
2022-10-20T10:19:03.292Z,12.29
2022-10-20T10:20:03.216Z,12.30
2022-10-20T10:21:03.193Z,12.33
2022-10-20T10:22:03.184Z,12.36
2022-10-20T10:23:03.175Z,12.38
2022-10-20T10:24:03.157Z,12.41
2022-10-20T10:25:03.170Z,12.46
2022-10-20T10:26:03.438Z,12.46
2022-10-20T10:27:03.148Z,12.46
2022-10-20T10:28:03.116Z,12.46
2022-10-20T10:29:03.110Z,12.47
2022-10-20T10:30:03.109Z,12.46
2022-10-20T10:31:03.099Z,12.44
2022-10-20T10:32:03.079Z,12.44
2022-10-20T10:33:03.069Z,12.41
2022-10-20T10:34:03.050Z,12.43
2022-10-20T10:35:03.065Z,12.40
2022-10-20T10:36:03.073Z,12.40
2022-10-20T10:37:03.021Z,12.41
2022-10-20T10:38:03.013Z,12.43
2022-10-20T10:39:03.011Z,12.44
2022-10-20T10:40:03.009Z,12.44
2022-10-20T10:41:02.983Z,12.46
2022-10-20T10:42:02.966Z,12.44
2022-10-20T10:43:02.962Z,12.44
2022-10-20T10:44:02.944Z,12.44
2022-10-20T10:45:02.963Z,12.46
2022-10-20T10:46:02.949Z,12.43
2022-10-20T10:47:02.924Z,12.43
2022-10-20T10:48:02.904Z,12.41
2022-10-20T10:49:02.905Z,12.41
2022-10-20T10:50:02.896Z,12.40
2022-10-20T10:51:02.876Z,12.40
2022-10-20T10:52:02.866Z,12.36
2022-10-20T10:53:02.855Z,12.35
2022-10-20T10:54:02.837Z,12.33
2022-10-20T10:55:02.848Z,12.32
2022-10-20T10:56:02.868Z,12.33
2022-10-20T10:57:02.808Z,12.35
2022-10-20T10:58:02.919Z,12.35
2022-10-20T10:59:02.797Z,12.36
2022-10-20T11:00:02.801Z,12.38
2022-10-20T11:01:02.821Z,12.38
2022-10-20T11:02:02.769Z,12.38
2022-10-20T11:03:02.749Z,12.36
2022-10-20T11:04:02.744Z,12.40
2022-10-20T11:05:02.795Z,12.40
2022-10-20T11:06:02.712Z,12.41
2022-10-20T11:07:02.704Z,12.40
2022-10-20T11:08:02.698Z,12.43
2022-10-20T11:09:02.774Z,12.41
2022-10-20T11:10:02.688Z,12.43
2022-10-20T11:11:02.676Z,12.41
2022-10-20T11:12:02.654Z,12.43
2022-10-20T11:13:02.644Z,12.44
2022-10-20T11:14:02.654Z,12.44
2022-10-20T11:15:02.624Z,12.44
2022-10-20T11:16:02.621Z,12.44
2022-10-20T11:17:02.596Z,12.46
2022-10-20T11:18:02.594Z,12.48
2022-10-20T11:19:02.592Z,12.48
2022-10-20T11:20:02.574Z,12.50
2022-10-20T11:21:02.557Z,12.51
2022-10-20T11:22:02.560Z,12.54
2022-10-20T11:23:02.537Z,12.55
2022-10-20T11:24:02.548Z,12.59
2022-10-20T11:25:02.515Z,12.61
2022-10-20T11:26:02.516Z,12.62
2022-10-20T11:27:02.510Z,12.65
2022-10-20T11:28:02.489Z,12.68
2022-10-20T11:29:02.491Z,12.68
2022-10-20T11:30:02.469Z,12.71
2022-10-20T11:31:02.452Z,12.73
2022-10-20T11:32:02.449Z,12.76
2022-10-20T11:33:02.430Z,12.77
2022-10-20T11:34:02.439Z,12.81
2022-10-20T11:35:02.411Z,12.86
2022-10-20T11:36:02.401Z,12.88
2022-10-20T11:37:02.401Z,12.91
2022-10-20T11:38:02.389Z,12.98
2022-10-20T11:39:02.383Z,13.01
2022-10-20T11:40:06.009Z,13.06
2022-10-20T11:41:03.343Z,13.09
2022-10-20T11:42:02.343Z,13.16
2022-10-20T11:43:02.328Z,13.21
2022-10-20T11:44:02.343Z,13.26
2022-10-20T11:45:02.303Z,13.27
2022-10-20T11:46:02.304Z,13.27
2022-10-20T11:47:02.281Z,13.30
2022-10-20T11:48:02.275Z,13.32
2022-10-20T11:49:04.141Z,13.30
2022-10-20T11:50:02.275Z,13.30
2022-10-20T11:51:02.306Z,13.29
2022-10-20T11:52:02.237Z,13.27
2022-10-20T11:53:02.236Z,13.29
2022-10-20T11:54:02.216Z,13.27
2022-10-20T11:55:02.225Z,13.27
2022-10-20T11:56:02.202Z,13.26
2022-10-20T11:57:02.185Z,13.26
2022-10-20T11:58:02.176Z,13.24
2022-10-20T11:59:02.149Z,13.26
2022-10-20T12:00:02.182Z,13.24
2022-10-20T12:01:02.132Z,13.26
2022-10-20T12:02:02.160Z,13.26
2022-10-20T12:03:02.111Z,13.24
2022-10-20T12:04:02.110Z,13.23
2022-10-20T12:05:02.107Z,13.23
2022-10-20T12:06:05.096Z,13.24
2022-10-20T12:07:03.071Z,13.26
2022-10-20T12:08:24.788Z,13.26
2022-10-20T12:09:03.089Z,13.27
2022-10-20T12:10:02.067Z,13.29
2022-10-20T12:11:02.030Z,13.29
2022-10-20T12:12:02.030Z,13.30
2022-10-20T12:13:02.013Z,13.32
2022-10-20T12:14:02.004Z,13.32
2022-10-20T12:15:01.996Z,13.32
2022-10-20T12:16:01.986Z,13.32
2022-10-20T12:17:01.966Z,13.30
2022-10-20T12:18:01.965Z,13.29
2022-10-20T12:20:01.947Z,13.29
2022-10-20T12:21:01.928Z,13.29
2022-10-20T12:22:01.914Z,13.27
2022-10-20T12:23:01.898Z,13.27
2022-10-20T12:24:01.897Z,13.27
2022-10-20T12:25:01.898Z,13.27
2022-10-20T12:26:01.877Z,13.29
2022-10-20T12:27:01.858Z,13.27
2022-10-20T12:28:01.872Z,13.27
2022-10-20T12:29:01.844Z,13.24
2022-10-20T12:30:01.858Z,13.24
2022-10-20T12:31:01.823Z,13.23
2022-10-20T12:32:01.811Z,13.23
2022-10-20T12:33:01.870Z,13.21
2022-10-20T12:34:01.792Z,13.20
2022-10-20T12:35:01.792Z,13.17
2022-10-20T12:36:01.779Z,13.17
2022-10-20T12:38:01.750Z,13.14
2022-10-20T12:39:01.735Z,13.13
2022-10-20T12:40:01.743Z,13.09
2022-10-20T12:41:01.713Z,13.09
2022-10-20T12:42:01.705Z,13.05
2022-10-20T12:43:01.694Z,13.05
2022-10-20T12:44:01.684Z,13.01
2022-10-20T12:45:02.597Z,12.99
2022-10-20T12:46:01.668Z,12.98
2022-10-20T12:47:01.657Z,12.93
2022-10-20T12:48:01.663Z,12.90
2022-10-20T12:49:01.628Z,12.88
2022-10-20T12:50:01.654Z,12.87
2022-10-20T12:51:01.616Z,12.83
2022-10-20T12:52:01.606Z,12.80
2022-10-20T12:53:01.585Z,12.77
2022-10-20T12:54:01.577Z,12.76
2022-10-20T12:55:01.589Z,12.72
2022-10-20T12:56:01.560Z,12.71
2022-10-20T12:57:01.543Z,12.71
2022-10-20T12:58:01.550Z,12.69
2022-10-20T12:59:01.521Z,12.68
2022-10-20T13:00:01.531Z,12.66
2022-10-20T13:01:01.535Z,12.66
2022-10-20T13:02:01.492Z,12.65
2022-10-20T13:03:01.479Z,12.65
2022-10-20T13:04:01.474Z,12.63
2022-10-20T13:05:01.481Z,12.62
2022-10-20T13:06:01.456Z,12.62
2022-10-20T13:07:01.435Z,12.62
2022-10-20T13:08:01.433Z,12.59
2022-10-20T13:09:01.455Z,12.59
2022-10-20T13:10:03.528Z,12.59
2022-10-20T13:11:01.396Z,12.59
2022-10-20T13:12:01.385Z,12.58
2022-10-20T13:13:01.372Z,12.58